メインページ
METAR-TAF:

METAR-TAF

空港 :

ボストン, マサチューセッツ州, アメリカ合衆国

ジェネラル・エドワード・ローレンス・ローガン国際空港

緯度: 42-21-38N, 経度: 071-00-38W, 海抜: 6m

現時点の気象観測

当レポートは1時間2分前の10:54(UTC)に作成
北西の風 9kt
気温 6°C
湿度 81%
気圧 1017 hPa
視程: 16.1km
高度25000ftの雲はほとんどない

METAR: KBOS 231054Z 31009KT 10SM FEW250 06/03 A3004 RMK AO2 SLP172 T00610028

時間: 07:56 (11:56 UTC)

予報

当レポートは36分前の11:20(UTC)に作成
予報は23日の 12時(UTC)から 24日の 18時(UTC)まで有効
北/北西の風 9kt
視程: 10km
高度25000ftの雲はほとんどない
23日の 1500時(UTC)から
北東の風 11kt
視程: 10km
晴天
23日の 2100時(UTC)から
南東の風 12kt
視程: 10km
晴天
24日の 0000時(UTC)から
の風 9kt
視程: 10km
高度25000ftの雲はほとんどない
24日の 0400時(UTC)から
南西の風 8kt
視程: 10km
高度25000ftの雲はほとんどない
24日の 1400時(UTC)から
南/南東の風 4kt
視程: 10km
高度25000ftの雲はほとんどない

TAF: KBOS 231120Z 2312/2418 33009KT P6SM FEW250 FM231500 04011KT P6SM SKC FM232100 14012KT P6SM SKC FM240000 18009KT P6SM FEW250 FM240400 22008KT P6SM FEW250 FM241400 15004KT P6SM FEW250

4,000以上の空港の気象観測と天気予報(METAR報とTAF報)

利用可能な観測所は地図上に黄色い丸と赤い丸で示す。

丸の上にカーソルを重ねると観測所名を参照できる。

次にクリックすると気象観測と天気予報を参照できる。

マップの切り替え:黒色「×」印の緑ボタンをクリックして拡大、「-」印の緑ボタンをクリックして縮小、緑色の三角印をクリックして隣りの地図に切り替え


METAR-TAF: